Time,TemperatureF,DewpointF,PressureIn,WindDirection,WindDirectionDegrees,WindSpeedMPH,WindSpeedGustMPH,Humidity,HourlyPrecipIn,Conditions,Clouds,dailyrainin,SolarRadiationWatts/m^2,SoftwareType,DateUTC
2013-01-18 00:05:00,34.6,34.1,30.13,NW,311,0.0,1.0,98,0.06,,,1.16,0,Wunderground v.1.15,2013-01-18 05:05:00,
2013-01-18 00:10:00,35.1,34.3,30.14,NW,315,0.0,4.0,97,0.06,,,1.16,0,Wunderground v.1.15,2013-01-18 05:10:00,
2013-01-18 00:15:00,35.4,34.9,30.15,NNW,338,3.0,4.0,98,0.07,,,1.17,0,Wunderground v.1.15,2013-01-18 05:15:00,
2013-01-18 00:20:00,35.2,34.7,30.15,NW,325,5.0,5.0,98,0.12,,,1.18,0,Wunderground v.1.15,2013-01-18 05:20:00,
2013-01-18 00:25:00,34.9,34.1,30.16,NNE,28,4.0,5.0,97,0.07,,,1.18,0,Wunderground v.1.15,2013-01-18 05:25:00,
2013-01-18 00:30:00,34.6,33.8,30.17,NNW,328,2.0,2.0,97,0.07,,,1.19,0,Wunderground v.1.15,2013-01-18 05:30:00,
2013-01-18 00:35:00,34.4,33.6,30.16,NNE,15,1.0,2.0,97,0.06,,,1.19,0,Wunderground v.1.15,2013-01-18 05:35:00,
2013-01-18 00:45:00,34.7,33.9,30.17,NNW,343,1.0,1.0,97,0.06,,,0.00,0,Wunderground v.1.15,2013-01-18 05:45:00,
2013-01-18 00:50:00,35.4,34.6,30.17,NW,317,4.0,9.0,97,0.05,,,0.01,0,Wunderground v.1.15,2013-01-18 05:50:00,
2013-01-18 00:55:00,35.9,35.4,30.18,NW,326,7.0,9.0,98,0.11,,,0.02,0,Wunderground v.1.15,2013-01-18 05:55:00,
2013-01-18 01:00:00,35.3,34.5,30.16,NNW,343,5.0,5.0,97,0.09,,,0.02,0,Wunderground v.1.15,2013-01-18 06:00:00,
2013-01-18 01:05:00,34.8,34.0,30.17,NNW,336,1.0,5.0,97,0.05,,,0.03,0,Wunderground v.1.15,2013-01-18 06:05:00,
2013-01-18 01:15:00,34.4,33.6,30.16,NNE,15,0.0,3.0,97,0.05,,,0.03,0,Wunderground v.1.15,2013-01-18 06:15:00,
2013-01-18 01:20:00,34.3,33.5,30.16,North,355,1.0,1.0,97,0.04,,,0.03,0,Wunderground v.1.15,2013-01-18 06:20:00,
2013-01-18 01:25:00,34.3,33.5,30.16,North,360,1.0,1.0,97,0.00,,,0.04,0,Wunderground v.1.15,2013-01-18 06:25:00,
2013-01-18 01:30:00,34.2,33.4,30.15,North,350,0.0,2.0,97,0.00,,,0.04,0,Wunderground v.1.15,2013-01-18 06:30:00,
2013-01-18 01:35:00,34.2,33.4,30.15,NNW,332,1.0,3.0,97,0.00,,,0.04,0,Wunderground v.1.15,2013-01-18 06:35:00,
2013-01-18 01:40:00,34.6,33.8,30.17,NNW,342,2.0,7.0,97,0.00,,,0.04,0,Wunderground v.1.15,2013-01-18 06:40:00,
2013-01-18 01:45:00,35.3,34.5,30.19,NW,312,5.0,10.0,97,0.00,,,0.05,0,Wunderground v.1.15,2013-01-18 06:45:00,
2013-01-18 01:55:00,36.4,35.9,30.19,WNW,302,11.0,11.0,98,0.11,,,0.07,0,Wunderground v.1.15,2013-01-18 06:55:00,
2013-01-18 02:00:00,36.1,35.3,30.19,NNW,337,10.0,11.0,97,0.11,,,0.07,0,Wunderground v.1.15,2013-01-18 07:00:00,
2013-01-18 02:05:00,35.9,35.1,30.20,NNW,346,9.0,11.0,97,0.10,,,0.08,0,Wunderground v.1.15,2013-01-18 07:05:00,
2013-01-18 02:10:00,35.8,35.0,30.20,NW,325,9.0,9.0,97,0.07,,,0.09,0,Wunderground v.1.15,2013-01-18 07:10:00,
2013-01-18 02:20:00,35.3,34.5,30.21,NNE,22,6.0,6.0,97,0.06,,,0.10,0,Wunderground v.1.15,2013-01-18 07:20:00,
2013-01-18 02:25:00,35.2,34.4,30.21,NW,319,4.0,8.0,97,0.06,,,0.10,0,Wunderground v.1.15,2013-01-18 07:25:00,
2013-01-18 02:30:00,35.2,34.4,30.21,North,355,3.0,3.0,97,0.05,,,0.10,0,Wunderground v.1.15,2013-01-18 07:30:00,
2013-01-18 02:40:00,35.7,34.9,30.21,North,350,6.0,6.0,97,0.04,,,0.11,0,Wunderground v.1.15,2013-01-18 07:40:00,
2013-01-18 02:45:00,35.4,34.6,30.21,WNW,302,7.0,10.0,97,0.06,,,0.12,0,Wunderground v.1.15,2013-01-18 07:45:00,
2013-01-18 02:50:00,35.6,34.8,30.22,NW,309,7.0,7.0,97,0.06,,,0.12,0,Wunderground v.1.15,2013-01-18 07:50:00,
2013-01-18 02:55:00,35.6,34.8,30.22,NW,323,9.0,10.0,97,0.06,,,0.13,0,Wunderground v.1.15,2013-01-18 07:55:00,
2013-01-18 03:00:00,35.4,34.6,30.21,NW,326,9.0,9.0,97,0.06,,,0.13,0,Wunderground v.1.15,2013-01-18 08:00:00,
2013-01-18 03:05:00,35.4,34.6,30.21,NNW,335,9.0,9.0,97,0.06,,,0.14,0,Wunderground v.1.15,2013-01-18 08:05:00,
2013-01-18 03:10:00,35.1,34.3,30.20,NW,312,8.0,10.0,97,0.06,,,0.14,0,Wunderground v.1.15,2013-01-18 08:10:00,
2013-01-18 03:20:00,34.8,34.0,30.21,North,355,7.0,7.0,97,0.04,,,0.14,0,Wunderground v.1.15,2013-01-18 08:20:00,
2013-01-18 03:25:00,34.6,33.8,30.21,NNE,15,6.0,7.0,97,0.04,,,0.15,0,Wunderground v.1.15,2013-01-18 08:25:00,
2013-01-18 03:30:00,34.3,33.5,30.21,NE,46,5.0,5.0,97,0.04,,,0.15,0,Wunderground v.1.15,2013-01-18 08:30:00,
2013-01-18 03:35:00,34.1,33.3,30.21,NW,323,3.0,5.0,97,0.04,,,0.15,0,Wunderground v.1.15,2013-01-18 08:35:00,
2013-01-18 03:40:00,33.9,33.1,30.21,NE,37,3.0,3.0,97,0.00,,,0.15,0,Wunderground v.1.15,2013-01-18 08:40:00,
2013-01-18 03:45:00,34.5,33.7,30.22,NW,313,3.0,8.0,97,0.00,,,0.16,0,Wunderground v.1.15,2013-01-18 08:45:00,
2013-01-18 03:50:00,34.8,34.0,30.22,West,265,6.0,6.0,97,0.00,,,0.16,0,Wunderground v.1.15,2013-01-18 08:50:00,
2013-01-18 03:55:00,34.7,33.9,30.23,WNW,302,6.0,6.0,97,0.00,,,0.16,0,Wunderground v.1.15,2013-01-18 08:55:00,
2013-01-18 04:05:00,34.6,34.1,30.23,West,281,4.0,5.0,98,0.04,,,0.17,0,Wunderground v.1.15,2013-01-18 09:05:00,
2013-01-18 04:10:00,34.8,34.3,30.24,NW,304,4.0,5.0,98,0.04,,,0.17,0,Wunderground v.1.15,2013-01-18 09:10:00,
2013-01-18 04:15:00,35.0,34.5,30.24,West,281,5.0,5.0,98,0.04,,,0.17,0,Wunderground v.1.15,2013-01-18 09:15:00,
2013-01-18 04:20:00,34.7,34.2,30.24,NNW,327,5.0,5.0,98,0.04,,,0.18,0,Wunderground v.1.15,2013-01-18 09:20:00,
2013-01-18 04:25:00,34.9,34.4,30.24,West,270,3.0,5.0,98,0.04,,,0.18,0,Wunderground v.1.15,2013-01-18 09:25:00,
2013-01-18 04:30:00,34.8,34.3,30.24,WSW,255,3.0,3.0,98,0.04,,,0.18,0,Wunderground v.1.15,2013-01-18 09:30:00,
2013-01-18 04:35:00,34.5,33.7,30.25,WNW,286,3.0,5.0,97,0.00,,,0.19,0,Wunderground v.1.15,2013-01-18 09:35:00,
2013-01-18 04:40:00,34.5,33.7,30.25,NW,311,3.0,8.0,97,0.00,,,0.19,0,Wunderground v.1.15,2013-01-18 09:40:00,
2013-01-18 04:50:00,35.0,34.5,30.25,West,276,7.0,7.0,98,0.00,,,0.19,0,Wunderground v.1.15,2013-01-18 09:50:00,
2013-01-18 04:55:00,34.9,34.4,30.25,WSW,257,5.0,7.0,98,0.00,,,0.20,0,Wunderground v.1.15,2013-01-18 09:55:00,
2013-01-18 05:00:00,34.7,33.9,30.26,West,272,3.0,3.0,97,0.00,,,0.20,0,Wunderground v.1.15,2013-01-18 10:00:00,
2013-01-18 05:05:00,34.6,33.8,30.26,WNW,286,2.0,4.0,97,0.00,,,0.20,0,Wunderground v.1.15,2013-01-18 10:05:00,
2013-01-18 05:10:00,34.5,33.7,30.26,WNW,302,4.0,7.0,97,0.00,,,0.20,0,Wunderground v.1.15,2013-01-18 10:10:00,
2013-01-18 05:20:00,34.7,34.2,30.26,WNW,282,5.0,5.0,98,0.00,,,0.21,0,Wunderground v.1.15,2013-01-18 10:20:00,
2013-01-18 05:25:00,34.8,34.3,30.26,WNW,284,4.0,5.0,98,0.00,,,0.21,0,Wunderground v.1.15,2013-01-18 10:25:00,
2013-01-18 05:30:00,34.7,34.2,30.27,West,272,3.0,3.0,98,0.00,,,0.21,0,Wunderground v.1.15,2013-01-18 10:30:00,
2013-01-18 05:35:00,34.8,34.3,30.27,NW,306,3.0,4.0,98,0.00,,,0.22,0,Wunderground v.1.15,2013-01-18 10:35:00,
2013-01-18 05:45:00,34.6,34.1,30.27,NNW,344,2.0,3.0,98,0.00,,,0.22,0,Wunderground v.1.15,2013-01-18 10:45:00,
2013-01-18 05:50:00,34.1,33.3,30.27,NNE,14,0.0,1.0,97,0.00,,,0.22,0,Wunderground v.1.15,2013-01-18 10:50:00,
2013-01-18 05:55:00,33.6,33.1,30.28,NNE,14,0.0,1.0,98,0.00,,,0.22,0,Wunderground v.1.15,2013-01-18 10:55:00,
2013-01-18 06:00:00,33.8,33.3,30.28,NW,312,0.0,1.0,98,0.00,,,0.22,0,Wunderground v.1.15,2013-01-18 11:00:00,
2013-01-18 06:05:00,34.4,33.9,30.28,NW,314,2.0,2.0,98,0.00,,,0.22,0,Wunderground v.1.15,2013-01-18 11:05:00,
2013-01-18 06:10:00,34.4,33.9,30.28,NW,324,2.0,2.0,98,0.00,,,0.22,0,Wunderground v.1.15,2013-01-18 11:10:00,
2013-01-18 06:15:00,34.6,34.1,30.29,NW,326,2.0,4.0,98,0.00,,,0.22,0,Wunderground v.1.15,2013-01-18 11:15:00,
2013-01-18 06:20:00,34.6,34.1,30.30,WNW,301,2.0,3.0,98,0.00,,,0.22,0,Wunderground v.1.15,2013-01-18 11:20:00,
2013-01-18 06:25:00,35.0,34.5,30.30,North,355,2.0,3.0,98,0.00,,,0.22,0,Wunderground v.1.15,2013-01-18 11:25:00,
2013-01-18 06:30:00,34.8,34.3,30.30,WSW,245,1.0,1.0,98,0.00,,,0.22,0,Wunderground v.1.15,2013-01-18 11:30:00,
2013-01-18 06:35:00,34.4,33.9,30.30,WSW,258,0.0,1.0,98,0.00,,,0.22,0,Wunderground v.1.15,2013-01-18 11:35:00,
2013-01-18 06:45:00,34.1,33.6,30.31,WSW,250,0.0,3.0,98,0.00,,,0.22,0,Wunderground v.1.15,2013-01-18 11:45:00,
2013-01-18 06:50:00,34.0,33.2,30.31,WSW,250,0.0,1.0,97,0.00,,,0.22,0,Wunderground v.1.15,2013-01-18 11:50:00,
2013-01-18 06:55:00,33.9,33.1,30.32,WSW,250,0.0,1.0,97,0.00,,,0.22,0,Wunderground v.1.15,2013-01-18 11:55:00,
2013-01-18 07:00:00,33.8,33.3,30.32,WSW,250,0.0,1.0,98,0.00,,,0.22,0,Wunderground v.1.15,2013-01-18 12:00:00,
2013-01-18 07:05:00,33.8,33.0,30.32,West,274,0.0,1.0,97,0.00,,,0.22,0,Wunderground v.1.15,2013-01-18 12:05:00,
2013-01-18 07:10:00,34.0,33.2,30.33,West,277,1.0,3.0,97,0.00,,,0.22,0,Wunderground v.1.15,2013-01-18 12:10:00,
2013-01-18 07:15:00,34.2,33.4,30.33,NW,309,2.0,6.0,97,0.00,,,0.22,0,Wunderground v.1.15,2013-01-18 12:15:00,
2013-01-18 07:20:00,34.3,33.5,30.33,NE,34,3.0,3.0,97,0.00,,,0.22,0,Wunderground v.1.15,2013-01-18 12:20:00,
2013-01-18 07:30:00,33.9,32.9,30.34,NNW,329,0.0,3.0,96,0.00,,,0.22,7,Wunderground v.1.15,2013-01-18 12:30:00,
2013-01-18 07:40:00,34.5,33.5,30.35,NW,310,2.0,4.0,96,0.00,,,0.22,11,Wunderground v.1.15,2013-01-18 12:40:00,
2013-01-18 07:45:00,34.3,33.3,30.35,NNE,33,2.0,4.0,96,0.00,,,0.22,12,Wunderground v.1.15,2013-01-18 12:45:00,
2013-01-18 07:50:00,34.5,33.2,30.36,North,350,2.0,2.0,95,0.00,,,0.22,14,Wunderground v.1.15,2013-01-18 12:50:00,
2013-01-18 07:55:00,34.4,33.1,30.36,NNE,19,2.0,2.0,95,0.00,,,0.22,14,Wunderground v.1.15,2013-01-18 12:55:00,
2013-01-18 08:00:00,34.1,32.6,30.36,NW,311,1.0,1.0,94,0.00,,,0.22,16,Wunderground v.1.15,2013-01-18 13:00:00,
2013-01-18 08:05:00,34.0,32.5,30.37,NNW,336,0.0,1.0,94,0.00,,,0.22,18,Wunderground v.1.15,2013-01-18 13:05:00,
2013-01-18 08:10:00,34.0,32.5,30.37,NNW,331,0.0,1.0,94,0.00,,,0.22,19,Wunderground v.1.15,2013-01-18 13:10:00,
2013-01-18 08:15:00,33.9,32.4,30.38,North,349,0.0,1.0,94,0.00,,,0.22,21,Wunderground v.1.15,2013-01-18 13:15:00,
2013-01-18 08:20:00,33.8,32.3,30.38,North,360,0.0,2.0,94,0.00,,,0.22,21,Wunderground v.1.15,2013-01-18 13:20:00,
2013-01-18 08:25:00,33.8,32.0,30.38,North,350,1.0,2.0,93,0.00,,,0.22,23,Wunderground v.1.15,2013-01-18 13:25:00,
2013-01-18 08:30:00,34.0,32.2,30.39,NW,325,1.0,1.0,93,0.00,,,0.23,25,Wunderground v.1.15,2013-01-18 13:30:00,
2013-01-18 08:40:00,35.0,33.4,30.40,ENE,67,3.0,3.0,94,0.00,,,0.23,26,Wunderground v.1.15,2013-01-18 13:40:00,
2013-01-18 08:45:00,35.3,33.5,30.40,North,5,3.0,3.0,93,0.00,,,0.23,26,Wunderground v.1.15,2013-01-18 13:45:00,
2013-01-18 08:55:00,35.3,32.9,30.41,NW,325,2.0,4.0,91,0.00,,,0.23,35,Wunderground v.1.15,2013-01-18 13:55:00,
2013-01-18 09:00:00,35.6,33.2,30.42,NW,315,3.0,3.0,91,0.00,,,0.23,40,Wunderground v.1.15,2013-01-18 14:00:00,
2013-01-18 09:05:00,35.8,33.2,30.42,NNE,26,3.0,6.0,90,0.00,,,0.23,40,Wunderground v.1.15,2013-01-18 14:05:00,
2013-01-18 09:10:00,35.9,33.3,30.42,WNW,299,2.0,2.0,90,0.00,,,0.23,86,Wunderground v.1.15,2013-01-18 14:10:00,
2013-01-18 09:15:00,36.1,33.2,30.43,NNW,331,2.0,5.0,89,0.00,,,0.23,51,Wunderground v.1.15,2013-01-18 14:15:00,
2013-01-18 09:20:00,36.5,33.6,30.43,NW,311,3.0,8.0,89,0.00,,,0.23,44,Wunderground v.1.15,2013-01-18 14:20:00,
2013-01-18 09:25:00,37.0,33.5,30.44,NNW,342,6.0,9.0,87,0.00,,,0.23,65,Wunderground v.1.15,2013-01-18 14:25:00,
2013-01-18 09:30:00,37.2,33.7,30.44,NW,318,7.0,7.0,87,0.00,,,0.23,67,Wunderground v.1.15,2013-01-18 14:30:00,
2013-01-18 09:35:00,37.4,33.6,30.44,NW,308,7.0,8.0,86,0.00,,,0.23,125,Wunderground v.1.15,2013-01-18 14:35:00,
2013-01-18 09:45:00,37.7,33.6,30.45,NW,316,7.0,8.0,85,0.00,,,0.24,209,Wunderground v.1.15,2013-01-18 14:45:00,
2013-01-18 09:50:00,37.9,33.2,30.45,NW,311,8.0,10.0,83,0.00,,,0.24,316,Wunderground v.1.15,2013-01-18 14:50:00,
2013-01-18 09:55:00,38.2,33.5,30.45,NW,309,9.0,10.0,83,0.00,,,0.24,392,Wunderground v.1.15,2013-01-18 14:55:00,
2013-01-18 10:00:00,38.5,34.1,30.46,NW,326,10.0,10.0,84,0.04,,,0.25,403,Wunderground v.1.15,2013-01-18 15:00:00,
2013-01-18 10:05:00,38.5,33.2,30.47,NW,318,9.0,10.0,81,0.08,,,0.26,417,Wunderground v.1.15,2013-01-18 15:05:00,
2013-01-18 10:10:00,38.7,33.7,30.47,NW,322,8.0,10.0,82,0.08,,,0.26,429,Wunderground v.1.15,2013-01-18 15:10:00,
2013-01-18 10:15:00,38.8,33.5,30.47,NW,321,9.0,10.0,81,0.07,,,0.27,438,Wunderground v.1.15,2013-01-18 15:15:00,
2013-01-18 10:20:00,38.8,33.8,30.47,NW,315,10.0,11.0,82,0.09,,,0.28,446,Wunderground v.1.15,2013-01-18 15:20:00,
2013-01-18 10:25:00,39.1,34.1,30.47,NW,314,9.0,11.0,82,0.08,,,0.28,455,Wunderground v.1.15,2013-01-18 15:25:00,
2013-01-18 10:30:00,39.1,34.1,30.47,NW,313,8.0,11.0,82,0.07,,,0.29,468,Wunderground v.1.15,2013-01-18 15:30:00,
2013-01-18 10:35:00,39.3,34.0,30.47,NW,304,9.0,11.0,81,0.08,,,0.30,476,Wunderground v.1.15,2013-01-18 15:35:00,
2013-01-18 10:40:00,39.3,34.0,30.47,NW,317,10.0,12.0,81,0.08,,,0.30,482,Wunderground v.1.15,2013-01-18 15:40:00,
2013-01-18 10:50:00,39.5,34.2,30.47,WNW,300,9.0,10.0,81,0.08,,,0.32,494,Wunderground v.1.15,2013-01-18 15:50:00,
2013-01-18 10:55:00,39.5,34.2,30.47,NW,321,8.0,10.0,81,0.08,,,0.32,503,Wunderground v.1.15,2013-01-18 15:55:00,
2013-01-18 11:00:00,39.7,34.3,30.47,NW,310,8.0,11.0,81,0.07,,,0.33,508,Wunderground v.1.15,2013-01-18 16:00:00,
2013-01-18 11:05:00,39.7,34.0,30.47,NW,315,9.0,11.0,80,0.09,,,0.34,512,Wunderground v.1.15,2013-01-18 16:05:00,
2013-01-18 11:15:00,40.2,33.9,30.47,NW,320,8.0,8.0,78,0.06,,,0.34,526,Wunderground v.1.15,2013-01-18 16:15:00,
2013-01-18 11:20:00,40.2,33.2,30.47,NNW,341,8.0,8.0,76,0.06,,,0.35,531,Wunderground v.1.15,2013-01-18 16:20:00,
2013-01-18 11:25:00,40.2,32.9,30.47,NW,325,8.0,8.0,75,0.06,,,0.35,536,Wunderground v.1.15,2013-01-18 16:25:00,
2013-01-18 11:30:00,40.3,33.7,30.46,NW,307,6.0,9.0,77,0.05,,,0.36,538,Wunderground v.1.15,2013-01-18 16:30:00,
2013-01-18 11:35:00,40.3,33.3,30.46,NNW,333,5.0,9.0,76,0.05,,,0.36,543,Wunderground v.1.15,2013-01-18 16:35:00,
2013-01-18 11:40:00,40.5,32.9,30.46,NW,320,5.0,10.0,74,0.04,,,0.36,547,Wunderground v.1.15,2013-01-18 16:40:00,
2013-01-18 11:50:00,40.9,32.9,30.46,NW,321,6.0,6.0,73,0.04,,,0.37,555,Wunderground v.1.15,2013-01-18 16:50:00,
2013-01-18 11:55:00,40.8,33.8,30.47,NW,314,6.0,7.0,76,0.04,,,0.37,559,Wunderground v.1.15,2013-01-18 16:55:00,
2013-01-18 12:00:00,40.9,32.6,30.46,NW,321,7.0,7.0,72,0.04,,,0.38,561,Wunderground v.1.15,2013-01-18 17:00:00,
2013-01-18 12:05:00,40.9,33.2,30.46,NW,317,6.0,7.0,74,0.04,,,0.38,564,Wunderground v.1.15,2013-01-18 17:05:00,
2013-01-18 12:10:00,40.9,34.2,30.46,WNW,301,6.0,6.0,77,0.04,,,0.38,563,Wunderground v.1.15,2013-01-18 17:10:00,
2013-01-18 12:20:00,41.2,32.9,30.45,NW,310,6.0,8.0,72,0.00,,,0.39,570,Wunderground v.1.15,2013-01-18 17:20:00,
2013-01-18 12:25:00,41.4,31.6,30.46,North,360,7.0,8.0,68,0.00,,,0.39,568,Wunderground v.1.15,2013-01-18 17:25:00,
2013-01-18 12:30:00,41.8,32.4,30.46,NNW,340,6.0,8.0,69,0.00,,,0.39,568,Wunderground v.1.15,2013-01-18 17:30:00,
2013-01-18 12:35:00,41.8,32.0,30.46,NW,317,4.0,8.0,68,0.00,,,0.39,568,Wunderground v.1.15,2013-01-18 17:35:00,
2013-01-18 12:40:00,41.5,32.4,30.45,NNW,327,4.0,4.0,70,0.00,,,0.39,564,Wunderground v.1.15,2013-01-18 17:40:00,
2013-01-18 12:45:00,41.9,32.8,30.46,NW,313,4.0,5.0,70,0.00,,,0.39,564,Wunderground v.1.15,2013-01-18 17:45:00,
2013-01-18 12:50:00,41.8,33.1,30.46,NW,306,6.0,7.0,71,0.00,,,0.39,566,Wunderground v.1.15,2013-01-18 17:50:00,
2013-01-18 12:55:00,42.0,32.9,30.46,NNE,22,6.0,7.0,70,0.00,,,0.39,561,Wunderground v.1.15,2013-01-18 17:55:00,
2013-01-18 13:05:00,42.2,31.6,30.45,NW,314,3.0,10.0,66,0.00,,,0.39,561,Wunderground v.1.15,2013-01-18 18:05:00,
2013-01-18 13:10:00,41.9,31.4,30.46,North,350,5.0,5.0,66,0.00,,,0.39,559,Wunderground v.1.15,2013-01-18 18:10:00,
2013-01-18 13:20:00,42.3,30.2,30.47,NNE,28,3.0,4.0,62,0.00,,,0.39,552,Wunderground v.1.15,2013-01-18 18:20:00,
2013-01-18 13:25:00,42.2,30.5,30.46,NNW,338,4.0,4.0,63,0.00,,,0.39,543,Wunderground v.1.15,2013-01-18 18:25:00,
2013-01-18 13:30:00,42.8,32.6,30.47,NE,41,3.0,3.0,67,0.00,,,0.39,571,Wunderground v.1.15,2013-01-18 18:30:00,
2013-01-18 13:35:00,42.7,32.9,30.47,North,355,2.0,3.0,68,0.00,,,0.39,568,Wunderground v.1.15,2013-01-18 18:35:00,
2013-01-18 13:40:00,42.7,32.1,30.46,NNW,335,3.0,3.0,66,0.00,,,0.39,536,Wunderground v.1.15,2013-01-18 18:40:00,
2013-01-18 13:45:00,42.7,30.6,30.46,NW,315,3.0,4.0,62,0.00,,,0.39,564,Wunderground v.1.15,2013-01-18 18:45:00,
2013-01-18 13:50:00,42.5,30.8,30.46,North,350,3.0,4.0,63,0.00,,,0.39,510,Wunderground v.1.15,2013-01-18 18:50:00,
2013-01-18 13:55:00,42.6,30.5,30.46,NNW,327,3.0,4.0,62,0.00,,,0.39,517,Wunderground v.1.15,2013-01-18 18:55:00,
2013-01-18 14:00:00,42.9,30.8,30.46,NNW,336,2.0,2.0,62,0.00,,,0.39,492,Wunderground v.1.15,2013-01-18 19:00:00,
2013-01-18 14:10:00,43.1,30.1,30.46,NE,40,0.0,1.0,60,0.00,,,0.39,482,Wunderground v.1.15,2013-01-18 19:10:00,
2013-01-18 14:15:00,43.1,29.7,30.47,North,355,0.0,1.0,59,0.00,,,0.39,483,Wunderground v.1.15,2013-01-18 19:15:00,
2013-01-18 14:25:00,43.3,32.3,30.47,NW,316,1.0,1.0,65,0.00,,,0.39,457,Wunderground v.1.15,2013-01-18 19:25:00,
2013-01-18 14:30:00,43.3,31.1,30.47,NW,316,0.0,1.0,62,0.00,,,0.39,452,Wunderground v.1.15,2013-01-18 19:30:00,
2013-01-18 14:35:00,44.0,32.2,30.47,NNW,344,0.0,4.0,63,0.00,,,0.39,448,Wunderground v.1.15,2013-01-18 19:35:00,
2013-01-18 14:40:00,43.5,30.9,30.47,NW,313,2.0,7.0,61,0.00,,,0.39,424,Wunderground v.1.15,2013-01-18 19:40:00,
2013-01-18 14:45:00,43.1,30.6,30.47,NW,312,4.0,7.0,61,0.00,,,0.39,422,Wunderground v.1.15,2013-01-18 19:45:00,
2013-01-18 14:55:00,42.8,30.3,30.48,NW,313,5.0,5.0,61,0.00,,,0.39,397,Wunderground v.1.15,2013-01-18 19:55:00,
2013-01-18 15:00:00,42.9,30.0,30.48,NW,313,4.0,4.0,60,0.00,,,0.39,385,Wunderground v.1.15,2013-01-18 20:00:00,
2013-01-18 15:10:00,43.1,30.1,30.48,North,355,3.0,4.0,60,0.00,,,0.39,357,Wunderground v.1.15,2013-01-18 20:10:00,
2013-01-18 15:15:00,43.4,30.0,30.48,North,355,2.0,4.0,59,0.00,,,0.39,345,Wunderground v.1.15,2013-01-18 20:15:00,
2013-01-18 15:25:00,43.5,30.9,30.48,WNW,298,0.0,1.0,61,0.00,,,0.39,316,Wunderground v.1.15,2013-01-18 20:25:00,
2013-01-18 15:35:00,43.4,30.4,30.48,NNW,335,1.0,1.0,60,0.00,,,0.39,287,Wunderground v.1.15,2013-01-18 20:35:00,
2013-01-18 15:40:00,44.3,31.3,30.49,NNW,335,1.0,1.0,60,0.00,,,0.39,278,Wunderground v.1.15,2013-01-18 20:40:00,
2013-01-18 15:45:00,44.3,29.6,30.48,NNW,335,0.0,1.0,56,0.00,,,0.39,262,Wunderground v.1.15,2013-01-18 20:45:00,
2013-01-18 15:50:00,43.8,32.4,30.49,NW,311,0.0,4.0,64,0.00,,,0.39,250,Wunderground v.1.15,2013-01-18 20:50:00,
2013-01-18 15:55:00,43.8,30.4,30.49,NNW,344,1.0,4.0,59,0.00,,,0.39,230,Wunderground v.1.15,2013-01-18 20:55:00,
2013-01-18 16:05:00,44.4,29.2,30.49,NNW,343,0.0,1.0,55,0.00,,,0.39,200,Wunderground v.1.15,2013-01-18 21:05:00,
2013-01-18 16:15:00,44.6,32.0,30.49,North,350,0.0,1.0,61,0.00,,,0.39,160,Wunderground v.1.15,2013-01-18 21:15:00,
2013-01-18 16:20:00,43.9,29.2,30.49,NNE,26,1.0,1.0,56,0.00,,,0.39,146,Wunderground v.1.15,2013-01-18 21:20:00,
2013-01-18 16:25:00,43.9,30.5,30.49,NNE,20,1.0,1.0,59,0.00,,,0.39,125,Wunderground v.1.15,2013-01-18 21:25:00,
2013-01-18 16:30:00,44.3,31.3,30.50,NNE,32,0.0,1.0,60,0.00,,,0.39,109,Wunderground v.1.15,2013-01-18 21:30:00,
2013-01-18 16:35:00,44.3,30.4,30.49,North,351,0.0,1.0,58,0.00,,,0.39,97,Wunderground v.1.15,2013-01-18 21:35:00,
2013-01-18 16:40:00,43.8,31.2,30.49,North,350,0.0,1.0,61,0.00,,,0.39,83,Wunderground v.1.15,2013-01-18 21:40:00,
2013-01-18 16:45:00,44.4,31.8,30.50,NE,36,0.0,1.0,61,0.00,,,0.39,70,Wunderground v.1.15,2013-01-18 21:45:00,
2013-01-18 16:55:00,43.6,32.6,30.50,North,360,0.0,1.0,65,0.00,,,0.39,44,Wunderground v.1.15,2013-01-18 21:55:00,
2013-01-18 17:00:00,43.6,33.0,30.51,North,360,0.0,1.0,66,0.00,,,0.39,33,Wunderground v.1.15,2013-01-18 22:00:00,
2013-01-18 17:05:00,42.2,35.5,30.50,North,360,0.0,1.0,77,0.00,,,0.39,26,Wunderground v.1.15,2013-01-18 22:05:00,
2013-01-18 17:10:00,41.8,33.1,30.51,North,360,0.0,1.0,71,0.00,,,0.39,19,Wunderground v.1.15,2013-01-18 22:10:00,
2013-01-18 17:15:00,41.8,34.5,30.51,North,360,0.0,1.0,75,0.00,,,0.39,12,Wunderground v.1.15,2013-01-18 22:15:00,
2013-01-18 17:20:00,40.9,33.9,30.51,North,360,0.0,1.0,76,0.00,,,0.39,7,Wunderground v.1.15,2013-01-18 22:20:00,
2013-01-18 17:25:00,40.4,32.8,30.51,North,360,0.0,1.0,74,0.00,,,0.39,0,Wunderground v.1.15,2013-01-18 22:25:00,
2013-01-18 17:30:00,39.7,33.4,30.51,North,360,0.0,1.0,78,0.00,,,0.39,0,Wunderground v.1.15,2013-01-18 22:30:00,
2013-01-18 17:40:00,38.7,32.1,30.52,North,360,0.0,1.0,77,0.00,,,0.39,0,Wunderground v.1.15,2013-01-18 22:40:00,
2013-01-18 17:45:00,38.3,33.0,30.52,North,360,0.0,1.0,81,0.00,,,0.39,0,Wunderground v.1.15,2013-01-18 22:45:00,
2013-01-18 17:50:00,37.9,32.0,30.52,North,360,0.0,1.0,79,0.00,,,0.39,0,Wunderground v.1.15,2013-01-18 22:50:00,
2013-01-18 17:55:00,37.7,32.4,30.52,North,360,0.0,1.0,81,0.00,,,0.39,0,Wunderground v.1.15,2013-01-18 22:55:00,
2013-01-18 18:00:00,37.4,32.1,30.53,North,360,0.0,1.0,81,0.00,,,0.39,0,Wunderground v.1.15,2013-01-18 23:00:00,
2013-01-18 18:05:00,37.3,31.4,30.52,North,360,0.0,1.0,79,0.00,,,0.39,0,Wunderground v.1.15,2013-01-18 23:05:00,
2013-01-18 18:10:00,37.2,31.9,30.52,North,360,0.0,1.0,81,0.00,,,0.39,0,Wunderground v.1.15,2013-01-18 23:10:00,
2013-01-18 18:15:00,37.3,32.6,30.53,North,360,0.0,1.0,83,0.00,,,0.39,0,Wunderground v.1.15,2013-01-18 23:15:00,
2013-01-18 18:20:00,37.1,31.5,30.53,North,360,0.0,1.0,80,0.00,,,0.39,0,Wunderground v.1.15,2013-01-18 23:20:00,
2013-01-18 18:25:00,36.9,31.6,30.53,North,360,0.0,1.0,81,0.00,,,0.39,0,Wunderground v.1.15,2013-01-18 23:25:00,
2013-01-18 18:35:00,36.5,31.8,30.53,North,360,0.0,1.0,83,0.00,,,0.39,0,Wunderground v.1.15,2013-01-18 23:35:00,
2013-01-18 18:40:00,36.2,31.5,30.54,North,360,0.0,1.0,83,0.00,,,0.39,0,Wunderground v.1.15,2013-01-18 23:40:00,
2013-01-18 18:45:00,36.0,31.9,30.53,North,360,0.0,1.0,85,0.00,,,0.39,0,Wunderground v.1.15,2013-01-18 23:45:00,
2013-01-18 18:50:00,35.6,31.5,30.54,North,360,0.0,1.0,85,0.00,,,0.39,0,Wunderground v.1.15,2013-01-18 23:50:00,
2013-01-18 18:55:00,35.6,31.8,30.54,North,360,0.0,1.0,86,0.00,,,0.39,0,Wunderground v.1.15,2013-01-18 23:55:00,
2013-01-18 19:00:00,35.3,31.5,30.54,North,360,0.0,1.0,86,0.00,,,0.39,0,Wunderground v.1.15,2013-01-19 00:00:00,
2013-01-18 19:05:00,35.2,31.7,30.54,North,360,0.0,1.0,87,0.00,,,0.39,0,Wunderground v.1.15,2013-01-19 00:05:00,
2013-01-18 19:15:00,35.2,32.3,30.54,North,360,0.0,1.0,89,0.00,,,0.39,0,Wunderground v.1.15,2013-01-19 00:15:00,
2013-01-18 19:20:00,35.0,32.1,30.54,North,360,0.0,1.0,89,0.00,,,0.39,0,Wunderground v.1.15,2013-01-19 00:20:00,
2013-01-18 19:25:00,35.0,32.6,30.54,North,360,0.0,1.0,91,0.00,,,0.39,0,Wunderground v.1.15,2013-01-19 00:25:00,
2013-01-18 19:35:00,34.8,32.7,30.55,North,360,0.0,1.0,92,0.00,,,0.39,0,Wunderground v.1.15,2013-01-19 00:35:00,
2013-01-18 19:40:00,34.8,32.7,30.54,North,360,0.0,1.0,92,0.00,,,0.39,0,Wunderground v.1.15,2013-01-19 00:40:00,
2013-01-18 19:45:00,34.5,32.4,30.55,North,360,0.0,1.0,92,0.00,,,0.39,0,Wunderground v.1.15,2013-01-19 00:45:00,
2013-01-18 19:55:00,34.2,32.1,30.55,North,360,0.0,1.0,92,0.00,,,0.39,0,Wunderground v.1.15,2013-01-19 00:55:00,
2013-01-18 20:00:00,34.0,31.9,30.55,North,360,0.0,1.0,92,0.00,,,0.39,0,Wunderground v.1.15,2013-01-19 01:00:00,
2013-01-18 20:05:00,33.8,32.0,30.55,North,360,0.0,1.0,93,0.00,,,0.39,0,Wunderground v.1.15,2013-01-19 01:05:00,
2013-01-18 20:10:00,33.7,31.9,30.54,North,360,0.0,1.0,93,0.00,,,0.39,0,Wunderground v.1.15,2013-01-19 01:10:00,
2013-01-18 20:15:00,33.3,31.2,30.54,North,360,0.0,1.0,92,0.00,,,0.39,0,Wunderground v.1.15,2013-01-19 01:15:00,
2013-01-18 20:20:00,33.2,31.4,30.54,North,360,0.0,1.0,93,0.00,,,0.39,0,Wunderground v.1.15,2013-01-19 01:20:00,
2013-01-18 20:30:00,33.0,31.2,30.54,North,360,0.0,1.0,93,0.00,,,0.39,0,Wunderground v.1.15,2013-01-19 01:30:00,
2013-01-18 20:35:00,33.0,31.5,30.54,North,360,0.0,1.0,94,0.00,,,0.39,0,Wunderground v.1.15,2013-01-19 01:35:00,
2013-01-18 20:45:00,32.9,31.4,30.54,North,360,0.0,1.0,94,0.00,,,0.39,0,Wunderground v.1.15,2013-01-19 01:45:00,
2013-01-18 20:50:00,32.9,31.4,30.54,North,360,0.0,1.0,94,0.00,,,0.39,0,Wunderground v.1.15,2013-01-19 01:50:00,
2013-01-18 20:55:00,32.7,31.2,30.55,North,360,0.0,1.0,94,0.00,,,0.39,0,Wunderground v.1.15,2013-01-19 01:55:00,
2013-01-18 21:00:00,32.5,31.0,30.54,North,360,0.0,1.0,94,0.00,,,0.39,0,Wunderground v.1.15,2013-01-19 02:00:00,
2013-01-18 21:05:00,32.8,31.5,30.54,North,5,0.0,1.0,95,0.00,,,0.39,0,Wunderground v.1.15,2013-01-19 02:05:00,
2013-01-18 21:15:00,32.8,31.5,30.54,North,5,0.0,1.0,95,0.00,,,0.39,0,Wunderground v.1.15,2013-01-19 02:15:00,
2013-01-18 21:20:00,32.8,31.5,30.54,North,5,0.0,1.0,95,0.00,,,0.39,0,Wunderground v.1.15,2013-01-19 02:20:00,
2013-01-18 21:25:00,32.8,31.5,30.54,North,5,0.0,1.0,95,0.00,,,0.39,0,Wunderground v.1.15,2013-01-19 02:25:00,
2013-01-18 21:30:00,32.6,31.3,30.54,North,5,0.0,1.0,95,0.00,,,0.39,0,Wunderground v.1.15,2013-01-19 02:30:00,
2013-01-18 21:40:00,32.2,30.9,30.54,North,5,0.0,1.0,95,0.00,,,0.39,0,Wunderground v.1.15,2013-01-19 02:40:00,
2013-01-18 21:45:00,32.0,30.7,30.54,North,5,0.0,1.0,95,0.00,,,0.39,0,Wunderground v.1.15,2013-01-19 02:45:00,
2013-01-18 21:55:00,31.7,30.4,30.54,North,5,0.0,1.0,95,0.00,,,0.39,0,Wunderground v.1.15,2013-01-19 02:55:00,
2013-01-18 22:00:00,31.4,30.1,30.54,North,5,0.0,1.0,95,0.00,,,0.39,0,Wunderground v.1.15,2013-01-19 03:00:00,
2013-01-18 22:05:00,31.2,29.9,30.54,North,5,0.0,1.0,95,0.00,,,0.39,0,Wunderground v.1.15,2013-01-19 03:05:00,
2013-01-18 22:10:00,31.2,29.9,30.54,North,5,0.0,1.0,95,0.00,,,0.39,0,Wunderground v.1.15,2013-01-19 03:10:00,
2013-01-18 22:20:00,31.6,30.3,30.54,North,5,0.0,1.0,95,0.00,,,0.39,0,Wunderground v.1.15,2013-01-19 03:20:00,
2013-01-18 22:25:00,31.6,30.3,30.54,North,5,0.0,1.0,95,0.00,,,0.39,0,Wunderground v.1.15,2013-01-19 03:25:00,
2013-01-18 22:30:00,31.5,30.2,30.54,North,5,0.0,1.0,95,0.00,,,0.39,0,Wunderground v.1.15,2013-01-19 03:30:00,
2013-01-18 22:35:00,31.4,30.1,30.54,North,5,0.0,1.0,95,0.00,,,0.39,0,Wunderground v.1.15,2013-01-19 03:35:00,
2013-01-18 22:40:00,31.3,30.0,30.54,North,5,0.0,1.0,95,0.00,,,0.39,0,Wunderground v.1.15,2013-01-19 03:40:00,
2013-01-18 22:50:00,31.0,29.7,30.53,North,5,0.0,1.0,95,0.00,,,0.39,0,Wunderground v.1.15,2013-01-19 03:50:00,
2013-01-18 22:55:00,31.1,29.8,30.53,North,5,0.0,1.0,95,0.00,,,0.39,0,Wunderground v.1.15,2013-01-19 03:55:00,
2013-01-18 23:05:00,30.9,29.6,30.53,North,5,0.0,1.0,95,0.00,,,0.39,0,Wunderground v.1.15,2013-01-19 04:05:00,
2013-01-18 23:10:00,30.9,29.6,30.52,North,5,0.0,1.0,95,0.00,,,0.39,0,Wunderground v.1.15,2013-01-19 04:10:00,
2013-01-18 23:15:00,30.7,29.4,30.52,North,5,0.0,1.0,95,0.00,,,0.39,0,Wunderground v.1.15,2013-01-19 04:15:00,
2013-01-18 23:20:00,30.6,29.3,30.52,North,5,0.0,1.0,95,0.00,,,0.39,0,Wunderground v.1.15,2013-01-19 04:20:00,
2013-01-18 23:25:00,30.6,29.3,30.52,North,5,0.0,1.0,95,0.00,,,0.39,0,Wunderground v.1.15,2013-01-19 04:25:00,
2013-01-18 23:35:00,30.8,29.5,30.52,North,5,0.0,1.0,95,0.00,,,0.39,0,Wunderground v.1.15,2013-01-19 04:35:00,
2013-01-18 23:40:00,30.7,29.4,30.52,North,5,0.0,1.0,95,0.00,,,0.39,0,Wunderground v.1.15,2013-01-19 04:40:00,
2013-01-18 23:45:00,30.6,29.3,30.52,North,5,0.0,1.0,95,0.00,,,0.39,0,Wunderground v.1.15,2013-01-19 04:45:00,
2013-01-18 23:55:00,30.5,29.2,30.51,North,5,0.0,1.0,95,0.00,,,0.39,0,Wunderground v.1.15,2013-01-19 04:55:00,